createdAt,value
2022-10-16T00:00:33.895Z,9.60
2022-10-16T00:01:33.866Z,9.20
2022-10-16T00:02:34.025Z,9.50
2022-10-16T00:03:33.875Z,9.80
2022-10-16T00:04:33.868Z,9.80
2022-10-16T00:05:33.875Z,9.50
2022-10-16T00:06:33.873Z,9.50
2022-10-16T00:07:33.868Z,9.70
2022-10-16T00:08:33.874Z,9.40
2022-10-16T00:09:33.880Z,9.50
2022-10-16T00:10:33.868Z,9.40
2022-10-16T00:11:33.871Z,9.60
2022-10-16T00:12:33.875Z,9.80
2022-10-16T00:13:33.872Z,9.80
2022-10-16T00:14:33.869Z,9.60
2022-10-16T00:15:33.873Z,9.70
2022-10-16T00:16:33.892Z,9.70
2022-10-16T00:17:33.870Z,9.50
2022-10-16T00:18:33.868Z,9.70
2022-10-16T00:19:33.868Z,10.00
2022-10-16T00:20:33.871Z,9.50
2022-10-16T00:21:33.872Z,9.70
2022-10-16T00:22:33.870Z,9.60
2022-10-16T00:23:33.876Z,9.80
2022-10-16T00:24:33.869Z,9.70
2022-10-16T00:25:33.874Z,9.60
2022-10-16T00:26:33.871Z,9.80
2022-10-16T00:27:33.872Z,9.80
2022-10-16T00:28:33.917Z,9.30
2022-10-16T00:29:33.868Z,10.00
2022-10-16T00:30:33.870Z,10.00
2022-10-16T00:31:33.874Z,9.70
2022-10-16T00:32:33.890Z,9.80
2022-10-16T00:33:33.873Z,9.70
2022-10-16T00:34:33.870Z,9.80
2022-10-16T00:35:33.867Z,9.60
2022-10-16T00:36:33.871Z,9.80
2022-10-16T00:37:33.871Z,9.30
2022-10-16T00:38:33.874Z,9.70
2022-10-16T00:39:33.876Z,9.90
2022-10-16T00:40:33.875Z,9.70
2022-10-16T00:41:33.874Z,9.40
2022-10-16T00:42:33.869Z,9.90
2022-10-16T00:43:33.868Z,9.80
2022-10-16T00:44:33.875Z,9.70
2022-10-16T00:45:33.871Z,9.90
2022-10-16T00:46:33.874Z,9.70
2022-10-16T00:47:33.887Z,9.40
2022-10-16T00:48:33.890Z,9.40
2022-10-16T00:49:33.871Z,9.40
2022-10-16T00:50:33.871Z,9.50
2022-10-16T00:51:33.879Z,9.30
2022-10-16T00:52:33.877Z,9.50
2022-10-16T00:53:33.870Z,9.50
2022-10-16T00:54:33.873Z,9.30
2022-10-16T00:55:36.624Z,9.70
2022-10-16T00:56:33.883Z,9.50
2022-10-16T00:57:33.867Z,9.10
2022-10-16T00:58:33.872Z,9.80
2022-10-16T00:59:33.870Z,9.60
2022-10-16T01:00:33.871Z,9.50
2022-10-16T01:01:33.957Z,9.80
2022-10-16T01:02:33.873Z,9.70
2022-10-16T01:03:33.874Z,9.30
2022-10-16T01:04:33.894Z,9.50
2022-10-16T01:05:33.880Z,9.40
2022-10-16T01:06:33.869Z,9.30
2022-10-16T01:07:33.871Z,9.10
2022-10-16T01:08:33.872Z,9.40
2022-10-16T01:09:33.868Z,9.50
2022-10-16T01:10:33.876Z,9.80
2022-10-16T01:11:33.871Z,9.50
2022-10-16T01:12:37.743Z,9.70
2022-10-16T01:13:33.869Z,9.50
2022-10-16T01:14:33.877Z,9.60
2022-10-16T01:15:33.925Z,10.20
2022-10-16T01:16:33.874Z,10.40
2022-10-16T01:17:33.870Z,9.90
2022-10-16T01:18:33.874Z,9.80
2022-10-16T01:19:33.879Z,9.80
2022-10-16T01:20:33.900Z,9.50
2022-10-16T01:21:33.874Z,9.30
2022-10-16T01:22:33.876Z,9.50
2022-10-16T01:23:33.871Z,9.50
2022-10-16T01:24:33.991Z,9.70
2022-10-16T01:25:33.872Z,9.70
2022-10-16T01:26:33.882Z,9.90
2022-10-16T01:27:33.872Z,9.40
2022-10-16T01:28:33.951Z,9.60
2022-10-16T01:29:33.871Z,9.60
2022-10-16T01:30:33.872Z,9.80
2022-10-16T01:31:33.872Z,9.60
2022-10-16T01:32:33.872Z,9.80
2022-10-16T01:33:33.876Z,9.90
2022-10-16T01:34:33.872Z,9.60
2022-10-16T01:35:33.871Z,9.50
2022-10-16T01:36:33.900Z,9.40
2022-10-16T01:37:33.872Z,9.60
2022-10-16T01:38:33.869Z,9.80
2022-10-16T01:39:33.873Z,9.80
2022-10-16T01:40:33.879Z,9.50
2022-10-16T01:41:33.872Z,9.40
2022-10-16T01:42:33.872Z,9.70
2022-10-16T01:43:33.875Z,9.70
2022-10-16T01:44:33.872Z,9.60
2022-10-16T01:45:33.880Z,10.00
2022-10-16T01:46:33.869Z,9.70
2022-10-16T01:47:33.872Z,9.60
2022-10-16T01:48:33.876Z,9.40
2022-10-16T01:49:33.872Z,9.30
2022-10-16T01:50:33.871Z,10.10
2022-10-16T01:51:33.872Z,9.50
2022-10-16T01:52:33.896Z,9.40
2022-10-16T01:53:33.876Z,9.30
2022-10-16T01:54:33.873Z,9.50
2022-10-16T01:55:33.877Z,9.50
2022-10-16T01:56:33.873Z,9.50
2022-10-16T01:57:33.876Z,9.60
2022-10-16T01:58:33.869Z,9.50
2022-10-16T01:59:33.876Z,9.60
2022-10-16T02:00:33.880Z,9.20
2022-10-16T02:01:33.900Z,9.50
2022-10-16T02:02:33.874Z,9.40
2022-10-16T02:03:33.876Z,9.70
2022-10-16T02:04:33.876Z,9.60
2022-10-16T02:05:33.873Z,9.40
2022-10-16T02:06:33.873Z,9.70
2022-10-16T02:07:33.872Z,9.80
2022-10-16T02:08:33.893Z,9.50
2022-10-16T02:09:33.875Z,9.70
2022-10-16T02:10:33.878Z,9.50
2022-10-16T02:11:33.874Z,9.80
2022-10-16T02:12:33.881Z,9.60
2022-10-16T02:13:33.872Z,9.70
2022-10-16T02:14:33.873Z,10.00
2022-10-16T02:15:33.877Z,9.70
2022-10-16T02:16:33.879Z,9.80
2022-10-16T02:17:33.870Z,9.80
2022-10-16T02:18:33.873Z,9.50
2022-10-16T02:19:33.923Z,9.90
2022-10-16T02:20:33.876Z,9.60
2022-10-16T02:21:33.873Z,9.60
2022-10-16T02:22:33.875Z,9.70
2022-10-16T02:23:33.876Z,9.60
2022-10-16T02:24:33.905Z,9.90
2022-10-16T02:25:33.872Z,9.80
2022-10-16T02:26:33.872Z,9.60
2022-10-16T02:27:33.881Z,9.70
2022-10-16T02:28:33.983Z,9.90
2022-10-16T02:29:33.874Z,9.90
2022-10-16T02:30:33.875Z,10.10
2022-10-16T02:31:33.873Z,9.80
2022-10-16T02:32:33.877Z,10.00
2022-10-16T02:33:33.874Z,10.10
2022-10-16T02:34:33.883Z,9.90
2022-10-16T02:35:33.875Z,10.10
2022-10-16T02:36:33.876Z,9.80
2022-10-16T02:37:33.876Z,10.00
2022-10-16T02:38:33.882Z,9.60
2022-10-16T02:39:33.874Z,9.70
2022-10-16T02:40:33.897Z,9.90
2022-10-16T02:41:33.871Z,10.00
2022-10-16T02:42:33.876Z,9.70
2022-10-16T02:43:33.881Z,9.60
2022-10-16T02:44:33.874Z,9.80
2022-10-16T02:45:33.883Z,9.80
2022-10-16T02:46:33.873Z,9.70
2022-10-16T02:47:33.873Z,9.80
2022-10-16T02:48:33.872Z,9.80
2022-10-16T02:49:33.871Z,9.80
2022-10-16T02:50:33.874Z,9.90
2022-10-16T02:51:33.881Z,9.80
2022-10-16T02:52:33.872Z,9.60
2022-10-16T02:53:33.875Z,9.70
2022-10-16T02:54:33.874Z,9.70
2022-10-16T02:55:33.876Z,9.70
2022-10-16T02:56:33.896Z,9.90
2022-10-16T02:57:33.880Z,10.00
2022-10-16T02:58:33.873Z,9.80
2022-10-16T02:59:33.875Z,9.90
2022-10-16T03:00:33.874Z,10.20
2022-10-16T03:01:33.980Z,9.70
2022-10-16T03:02:33.873Z,9.90
2022-10-16T03:03:33.875Z,10.00
2022-10-16T03:04:33.874Z,9.70
2022-10-16T03:05:33.877Z,9.70
2022-10-16T03:06:33.880Z,9.60
2022-10-16T03:07:33.875Z,10.00
2022-10-16T03:08:33.872Z,10.00
2022-10-16T03:09:33.874Z,10.20
2022-10-16T03:10:33.877Z,10.10
2022-10-16T03:11:33.878Z,9.80
2022-10-16T03:12:33.914Z,9.80
2022-10-16T03:13:33.872Z,11.20
2022-10-16T03:14:33.877Z,10.50
2022-10-16T03:15:33.879Z,9.90
2022-10-16T03:16:33.879Z,10.10
2022-10-16T03:17:33.882Z,9.90
2022-10-16T03:18:33.878Z,9.80
2022-10-16T03:19:33.874Z,9.80
2022-10-16T03:20:33.876Z,10.40
2022-10-16T03:21:33.878Z,10.00
2022-10-16T03:22:33.875Z,10.00
2022-10-16T03:23:33.886Z,10.00
2022-10-16T03:24:33.873Z,9.50
2022-10-16T03:25:33.883Z,9.60
2022-10-16T03:26:33.875Z,9.40
2022-10-16T03:27:33.904Z,10.10
2022-10-16T03:28:34.038Z,10.30
2022-10-16T03:29:33.886Z,9.70
2022-10-16T03:30:33.876Z,10.00
2022-10-16T03:31:33.879Z,10.00
2022-10-16T03:33:33.878Z,10.00
2022-10-16T03:34:33.882Z,9.90
2022-10-16T03:35:33.882Z,9.90
2022-10-16T03:36:33.877Z,9.80
2022-10-16T03:37:33.876Z,9.90
2022-10-16T03:38:33.880Z,10.00
2022-10-16T03:39:33.879Z,11.30
2022-10-16T03:40:33.879Z,10.20
2022-10-16T03:41:33.885Z,10.10
2022-10-16T03:42:33.878Z,10.30
2022-10-16T03:43:33.887Z,10.00
2022-10-16T03:44:33.900Z,9.70
2022-10-16T03:45:33.877Z,9.90
2022-10-16T03:46:33.878Z,9.60
2022-10-16T03:47:33.880Z,10.10
2022-10-16T03:48:33.881Z,9.90
2022-10-16T03:49:33.882Z,9.50
2022-10-16T03:50:33.873Z,9.80
2022-10-16T03:51:33.888Z,9.90
2022-10-16T03:52:33.881Z,9.60
2022-10-16T03:53:33.874Z,9.90
2022-10-16T03:54:33.881Z,10.10
2022-10-16T03:55:33.885Z,10.10
2022-10-16T03:56:33.874Z,10.10
2022-10-16T03:57:33.878Z,10.20
2022-10-16T03:58:33.877Z,10.00
2022-10-16T03:59:33.877Z,9.90
2022-10-16T04:00:33.898Z,9.80
2022-10-16T04:01:33.874Z,9.80
2022-10-16T04:02:33.930Z,9.50
2022-10-16T04:03:33.883Z,9.70
2022-10-16T04:04:33.880Z,9.80
2022-10-16T04:05:33.877Z,9.80
2022-10-16T04:06:33.875Z,9.40
2022-10-16T04:07:33.878Z,9.80
2022-10-16T04:08:33.876Z,10.00
2022-10-16T04:09:33.883Z,9.90
2022-10-16T04:10:33.881Z,9.50
2022-10-16T04:11:33.878Z,9.90
2022-10-16T04:12:33.879Z,9.80
2022-10-16T04:13:33.876Z,9.80
2022-10-16T04:14:33.880Z,9.70
2022-10-16T04:15:33.877Z,10.00
2022-10-16T04:16:33.901Z,9.70
2022-10-16T04:17:33.876Z,9.70
2022-10-16T04:18:33.876Z,9.70
2022-10-16T04:19:33.883Z,9.60
2022-10-16T04:20:33.881Z,9.90
2022-10-16T04:21:33.877Z,9.90
2022-10-16T04:22:33.878Z,9.90
2022-10-16T04:23:33.882Z,9.90
2022-10-16T04:24:33.881Z,10.60
2022-10-16T04:25:33.881Z,10.30
2022-10-16T04:26:33.881Z,10.10
2022-10-16T04:27:33.881Z,10.20
2022-10-16T04:28:33.970Z,10.30
2022-10-16T04:29:33.879Z,10.20
2022-10-16T04:30:33.876Z,10.60
2022-10-16T04:31:33.885Z,10.30
2022-10-16T04:32:33.895Z,10.50
2022-10-16T04:33:33.880Z,10.50
2022-10-16T04:34:33.878Z,10.30
2022-10-16T04:35:33.882Z,10.40
2022-10-16T04:36:33.880Z,10.30
2022-10-16T04:37:33.877Z,10.30
2022-10-16T04:38:33.878Z,10.70
2022-10-16T04:39:33.885Z,10.40
2022-10-16T04:40:33.887Z,10.50
2022-10-16T04:41:33.878Z,10.40
2022-10-16T04:42:33.881Z,10.00
2022-10-16T04:43:33.884Z,10.00
2022-10-16T04:44:33.881Z,10.20
2022-10-16T04:45:33.895Z,10.10
2022-10-16T04:46:33.880Z,10.40
2022-10-16T04:47:33.881Z,10.10
2022-10-16T04:48:33.901Z,10.30
2022-10-16T04:49:33.884Z,10.20
2022-10-16T04:50:33.883Z,10.00
2022-10-16T04:51:33.883Z,10.20
2022-10-16T04:53:33.883Z,10.10
2022-10-16T04:54:33.883Z,9.90
2022-10-16T04:55:33.887Z,10.20
2022-10-16T04:56:33.880Z,9.80
2022-10-16T04:57:33.881Z,9.80
2022-10-16T04:58:33.879Z,9.70
2022-10-16T04:59:33.893Z,9.80
2022-10-16T05:00:33.883Z,9.90
2022-10-16T05:01:33.881Z,9.70
2022-10-16T05:02:33.927Z,9.70
2022-10-16T05:03:33.923Z,10.20
2022-10-16T05:04:33.901Z,9.60
2022-10-16T05:05:33.880Z,9.60
2022-10-16T05:06:33.880Z,9.50
2022-10-16T05:07:33.881Z,9.80
2022-10-16T05:08:33.880Z,9.90
2022-10-16T05:09:33.884Z,9.90
2022-10-16T05:10:33.881Z,9.80
2022-10-16T05:11:33.880Z,9.70
2022-10-16T05:12:33.879Z,9.60
2022-10-16T05:13:33.880Z,9.30
2022-10-16T05:14:33.895Z,9.80
2022-10-16T05:15:33.883Z,10.10
2022-10-16T05:16:33.883Z,9.70
2022-10-16T05:17:33.884Z,9.50
2022-10-16T05:18:33.878Z,9.50
2022-10-16T05:19:33.877Z,10.00
2022-10-16T05:20:33.904Z,9.80
2022-10-16T05:21:33.880Z,10.00
2022-10-16T05:22:33.880Z,10.10
2022-10-16T05:23:33.880Z,10.30
2022-10-16T05:24:33.877Z,10.20
2022-10-16T05:25:33.882Z,9.90
2022-10-16T05:26:33.883Z,10.10
2022-10-16T05:27:33.881Z,10.10
2022-10-16T05:28:33.952Z,9.80
2022-10-16T05:29:33.884Z,10.20
2022-10-16T05:30:33.880Z,10.40
2022-10-16T05:31:33.886Z,10.20
2022-10-16T05:32:33.885Z,10.30
2022-10-16T05:33:33.879Z,10.30
2022-10-16T05:34:33.894Z,10.20
2022-10-16T05:35:33.884Z,10.10
2022-10-16T05:36:33.902Z,10.00
2022-10-16T05:37:33.883Z,10.30
2022-10-16T05:38:33.878Z,10.50
2022-10-16T05:39:33.881Z,10.20
2022-10-16T05:40:33.882Z,10.10
2022-10-16T05:41:33.886Z,9.90
2022-10-16T05:42:33.881Z,9.70
2022-10-16T05:43:33.879Z,10.00
2022-10-16T05:45:33.882Z,9.50
2022-10-16T05:46:33.882Z,9.70
2022-10-16T05:47:33.882Z,9.60
2022-10-16T05:48:33.879Z,9.80
2022-10-16T05:49:37.771Z,9.60
2022-10-16T05:50:33.877Z,9.60
2022-10-16T05:51:33.882Z,9.70
2022-10-16T05:52:33.900Z,9.70
2022-10-16T05:53:34.031Z,9.80
2022-10-16T05:54:33.887Z,9.80
2022-10-16T05:55:33.880Z,9.90
2022-10-16T05:56:33.878Z,9.90
2022-10-16T05:57:33.878Z,9.60
2022-10-16T05:58:33.876Z,9.60
2022-10-16T05:59:33.882Z,9.80
2022-10-16T06:00:33.884Z,9.80
2022-10-16T06:01:33.939Z,9.40
2022-10-16T06:02:33.876Z,9.60
2022-10-16T06:03:33.881Z,9.30
2022-10-16T06:04:33.889Z,9.50
2022-10-16T06:05:33.885Z,9.80
2022-10-16T06:06:33.878Z,9.30
2022-10-16T06:07:33.880Z,9.90
2022-10-16T06:08:33.899Z,9.60
2022-10-16T06:09:33.883Z,9.60
2022-10-16T06:10:33.882Z,9.50
2022-10-16T06:11:33.881Z,9.50
2022-10-16T06:12:33.877Z,10.00
2022-10-16T06:13:33.879Z,10.20
2022-10-16T06:14:33.927Z,10.00
2022-10-16T06:15:33.882Z,9.70
2022-10-16T06:16:33.888Z,9.70
2022-10-16T06:17:33.884Z,10.20
2022-10-16T06:18:33.879Z,10.00
2022-10-16T06:19:33.881Z,10.60
2022-10-16T06:20:33.879Z,10.20
2022-10-16T06:21:33.885Z,9.80
2022-10-16T06:22:33.878Z,9.60
2022-10-16T06:23:33.898Z,9.60
2022-10-16T06:24:33.901Z,9.40
2022-10-16T06:25:33.880Z,9.00
2022-10-16T06:26:33.878Z,9.60
2022-10-16T06:27:33.878Z,9.40
2022-10-16T06:28:34.000Z,9.60
2022-10-16T06:29:33.881Z,9.00
2022-10-16T06:30:33.889Z,9.20
2022-10-16T06:31:33.881Z,9.20
2022-10-16T06:32:33.880Z,9.20
2022-10-16T06:33:33.886Z,9.40
2022-10-16T06:34:35.187Z,9.50
2022-10-16T06:35:33.881Z,9.00
2022-10-16T06:36:33.882Z,9.10
2022-10-16T06:37:33.876Z,9.10
2022-10-16T06:38:33.885Z,8.90
2022-10-16T06:39:33.883Z,9.10
2022-10-16T06:40:33.908Z,9.20
2022-10-16T06:41:33.879Z,8.70
2022-10-16T06:42:33.878Z,8.70
2022-10-16T06:43:33.889Z,8.90
2022-10-16T06:44:33.878Z,9.20
2022-10-16T06:45:33.878Z,9.70
2022-10-16T06:46:33.879Z,9.60
2022-10-16T06:47:33.879Z,9.30
2022-10-16T06:48:33.881Z,8.80
2022-10-16T06:49:33.887Z,8.80
2022-10-16T06:50:33.882Z,8.40
2022-10-16T06:51:35.097Z,9.40
2022-10-16T06:52:33.879Z,9.70
2022-10-16T06:53:40.002Z,9.40
2022-10-16T06:54:41.882Z,9.60
2022-10-16T06:55:33.882Z,9.50
2022-10-16T06:56:33.961Z,9.30
2022-10-16T06:57:33.878Z,9.40
2022-10-16T06:58:33.885Z,9.40
2022-10-16T06:59:33.891Z,9.80
2022-10-16T07:00:33.886Z,9.80
2022-10-16T07:01:33.886Z,9.40
2022-10-16T07:02:33.884Z,9.40
2022-10-16T07:03:33.882Z,9.40
2022-10-16T07:04:33.883Z,9.00
2022-10-16T07:05:33.888Z,9.10
2022-10-16T07:06:33.893Z,9.10
2022-10-16T07:07:33.879Z,9.20
2022-10-16T07:08:33.885Z,9.10
2022-10-16T07:09:33.885Z,9.00
2022-10-16T07:10:33.882Z,9.60
2022-10-16T07:11:33.882Z,9.20
2022-10-16T07:12:33.903Z,9.10
2022-10-16T07:13:33.886Z,9.50
2022-10-16T07:14:33.889Z,9.50
2022-10-16T07:15:33.888Z,9.20
2022-10-16T07:16:33.888Z,9.40
2022-10-16T07:17:33.896Z,9.10
2022-10-16T07:18:33.891Z,9.10
2022-10-16T07:19:34.575Z,8.70
2022-10-16T07:20:33.890Z,8.90
2022-10-16T07:21:33.885Z,9.00
2022-10-16T07:22:33.889Z,8.60
2022-10-16T07:23:33.886Z,8.60
2022-10-16T07:24:33.887Z,8.50
2022-10-16T07:25:33.884Z,9.10
2022-10-16T07:26:33.887Z,9.00
2022-10-16T07:27:33.906Z,8.80
2022-10-16T07:28:33.967Z,8.90
2022-10-16T07:29:33.887Z,8.90
2022-10-16T07:30:33.932Z,9.00
2022-10-16T07:31:33.895Z,8.80
2022-10-16T07:32:33.887Z,8.90
2022-10-16T07:33:33.884Z,8.60
2022-10-16T07:34:33.884Z,8.50
2022-10-16T07:35:33.888Z,8.80
2022-10-16T07:36:33.915Z,8.90
2022-10-16T07:37:33.890Z,8.70
2022-10-16T07:38:33.888Z,8.40
2022-10-16T07:39:33.887Z,8.70
2022-10-16T07:40:33.899Z,8.60
2022-10-16T07:41:33.891Z,8.40
2022-10-16T07:42:33.897Z,8.10
2022-10-16T07:43:33.891Z,8.60
2022-10-16T07:44:33.914Z,8.70
2022-10-16T07:45:33.894Z,8.80
2022-10-16T07:46:33.892Z,8.90
2022-10-16T07:47:33.893Z,8.40
2022-10-16T07:48:33.902Z,9.00
2022-10-16T07:49:33.896Z,8.90
2022-10-16T07:50:33.897Z,8.80
2022-10-16T07:51:33.898Z,8.50
2022-10-16T07:52:33.897Z,8.70
2022-10-16T07:53:33.895Z,8.90
2022-10-16T07:54:33.899Z,8.80
2022-10-16T07:55:33.899Z,8.30
2022-10-16T07:56:33.900Z,8.50
2022-10-16T07:57:33.898Z,8.00
2022-10-16T07:58:33.909Z,8.00
2022-10-16T07:59:33.902Z,8.50
2022-10-16T08:00:33.926Z,8.80
2022-10-16T08:01:33.973Z,8.70
2022-10-16T08:02:33.904Z,8.80
2022-10-16T08:03:33.902Z,9.10
2022-10-16T08:04:33.909Z,8.70
2022-10-16T08:05:33.902Z,9.10
2022-10-16T08:06:33.908Z,8.80
2022-10-16T08:07:33.907Z,8.50
2022-10-16T08:08:33.908Z,8.70
2022-10-16T08:09:33.909Z,8.80
2022-10-16T08:10:33.914Z,8.30
2022-10-16T08:11:33.909Z,8.40
2022-10-16T08:12:33.916Z,8.50
2022-10-16T08:13:33.913Z,8.90
2022-10-16T08:14:33.917Z,8.50
2022-10-16T08:15:33.912Z,8.60
2022-10-16T08:16:33.937Z,8.30
2022-10-16T08:17:33.912Z,8.80
2022-10-16T08:18:33.918Z,9.00
2022-10-16T08:19:33.923Z,8.40
2022-10-16T08:20:33.916Z,8.40
2022-10-16T08:21:33.916Z,8.20
2022-10-16T08:22:33.926Z,8.90
2022-10-16T08:23:33.925Z,10.10
2022-10-16T08:24:33.921Z,8.80
2022-10-16T08:25:33.917Z,8.30
2022-10-16T08:26:33.921Z,8.30
2022-10-16T08:27:33.921Z,8.50
2022-10-16T08:28:34.031Z,8.50
2022-10-16T08:29:33.926Z,8.20
2022-10-16T08:30:33.927Z,8.60
2022-10-16T08:31:33.927Z,8.60
2022-10-16T08:32:34.229Z,9.00
2022-10-16T08:33:33.932Z,9.00
2022-10-16T08:34:33.932Z,8.90
2022-10-16T08:35:33.934Z,8.70
2022-10-16T08:36:33.927Z,8.60
2022-10-16T08:37:33.932Z,8.30
2022-10-16T08:38:33.933Z,8.70
2022-10-16T08:39:33.934Z,8.30
2022-10-16T08:40:33.938Z,8.00
2022-10-16T08:41:33.931Z,8.30
2022-10-16T08:42:33.933Z,8.40
2022-10-16T08:43:33.939Z,8.40
2022-10-16T08:44:33.938Z,8.60
2022-10-16T08:45:33.932Z,8.30
2022-10-16T08:46:33.941Z,8.50
2022-10-16T08:47:33.939Z,8.60
2022-10-16T08:48:33.957Z,8.80
2022-10-16T08:49:33.965Z,8.30
2022-10-16T08:50:34.134Z,8.20
2022-10-16T08:51:33.940Z,8.50
2022-10-16T08:52:33.941Z,8.60
2022-10-16T08:53:33.938Z,8.70
2022-10-16T08:54:33.945Z,8.50
2022-10-16T08:55:33.945Z,8.50
2022-10-16T08:56:33.950Z,8.40
2022-10-16T08:57:33.951Z,8.30
2022-10-16T08:58:33.979Z,8.20
2022-10-16T08:59:33.952Z,8.40
2022-10-16T09:00:34.067Z,8.30
2022-10-16T09:01:33.954Z,9.00
2022-10-16T09:02:33.955Z,8.60
2022-10-16T09:03:33.957Z,8.50
2022-10-16T09:04:33.977Z,8.40
2022-10-16T09:05:33.952Z,8.50
2022-10-16T09:06:33.967Z,8.50
2022-10-16T09:07:33.959Z,7.30
2022-10-16T09:08:33.960Z,7.00
2022-10-16T09:09:33.962Z,7.20
2022-10-16T09:10:33.968Z,6.90
2022-10-16T09:11:33.963Z,7.30
2022-10-16T09:12:33.967Z,7.90
2022-10-16T09:13:33.972Z,7.70
2022-10-16T09:14:33.974Z,8.00
2022-10-16T09:15:33.969Z,8.60
2022-10-16T09:16:33.973Z,8.40
2022-10-16T09:17:33.969Z,8.80
2022-10-16T09:18:33.970Z,7.70
2022-10-16T09:19:33.975Z,8.30
2022-10-16T09:20:33.992Z,8.40
2022-10-16T09:21:33.978Z,8.50
2022-10-16T09:22:33.979Z,8.50
2022-10-16T09:23:33.973Z,8.50
2022-10-16T09:24:33.981Z,7.90
2022-10-16T09:25:33.982Z,8.10
2022-10-16T09:26:33.997Z,8.20
2022-10-16T09:27:33.992Z,8.20
2022-10-16T09:28:34.124Z,8.30
2022-10-16T09:29:33.991Z,8.00
2022-10-16T09:30:33.992Z,7.90
2022-10-16T09:31:33.996Z,8.00
2022-10-16T09:32:34.001Z,8.30
2022-10-16T09:33:33.996Z,8.40
2022-10-16T09:34:34.001Z,8.60
2022-10-16T09:35:34.033Z,8.20
2022-10-16T09:36:34.028Z,8.50
2022-10-16T09:37:34.009Z,8.50
2022-10-16T09:38:34.019Z,8.80
2022-10-16T09:39:34.018Z,8.80
2022-10-16T09:40:34.022Z,8.40
2022-10-16T09:41:34.027Z,8.20
2022-10-16T09:42:34.025Z,8.30
2022-10-16T09:43:34.027Z,8.10
2022-10-16T09:44:34.103Z,8.40
2022-10-16T09:45:34.037Z,8.50
2022-10-16T09:46:34.039Z,8.40
2022-10-16T09:47:34.046Z,8.90
2022-10-16T09:48:34.046Z,7.80
2022-10-16T09:49:34.047Z,8.00
2022-10-16T09:50:34.051Z,8.70
2022-10-16T09:51:34.055Z,8.90
2022-10-16T09:52:34.077Z,8.80
2022-10-16T09:53:34.067Z,9.10
2022-10-16T09:54:34.071Z,8.60
2022-10-16T09:55:34.075Z,8.70
2022-10-16T09:56:34.084Z,9.50
2022-10-16T09:57:34.083Z,9.40
2022-10-16T09:58:34.093Z,9.30
2022-10-16T09:59:34.092Z,9.20
2022-10-16T10:00:34.108Z,9.20
2022-10-16T10:01:34.118Z,9.00
2022-10-16T10:02:34.121Z,8.90
2022-10-16T10:03:34.131Z,8.70
2022-10-16T10:04:34.137Z,8.10
2022-10-16T10:05:34.141Z,8.00
2022-10-16T10:06:34.158Z,8.20
2022-10-16T10:07:34.175Z,8.40
2022-10-16T10:08:34.193Z,8.90
2022-10-16T10:09:34.175Z,9.00
2022-10-16T10:10:34.186Z,9.10
2022-10-16T10:11:34.191Z,8.90
2022-10-16T10:12:34.606Z,9.40
2022-10-16T10:13:34.205Z,9.50
2022-10-16T10:14:34.218Z,9.50
2022-10-16T10:15:34.219Z,9.60
2022-10-16T10:16:34.242Z,9.60
2022-10-16T10:17:34.240Z,9.40
2022-10-16T10:18:34.250Z,9.40
2022-10-16T10:19:34.254Z,9.90
2022-10-16T10:20:34.263Z,8.70
2022-10-16T10:21:34.276Z,8.70
2022-10-16T10:22:34.277Z,8.80
2022-10-16T10:23:34.285Z,8.70
2022-10-16T10:24:34.317Z,9.20
2022-10-16T10:25:34.304Z,9.30
2022-10-16T10:26:37.783Z,9.30
2022-10-16T10:27:34.318Z,8.30
2022-10-16T10:28:34.364Z,8.50
2022-10-16T10:29:34.327Z,9.20
2022-10-16T10:30:34.337Z,9.50
2022-10-16T10:31:34.341Z,8.60
2022-10-16T10:32:34.349Z,8.90
2022-10-16T10:33:34.353Z,9.30
2022-10-16T10:34:34.366Z,9.20
2022-10-16T10:35:34.369Z,9.70
2022-10-16T10:36:34.383Z,9.30
2022-10-16T10:37:34.382Z,9.30
2022-10-16T10:38:34.395Z,9.30
2022-10-16T10:39:34.401Z,9.50
2022-10-16T10:40:34.430Z,9.80
2022-10-16T10:41:34.407Z,9.50
2022-10-16T10:42:34.421Z,9.90
2022-10-16T10:43:34.421Z,9.90
2022-10-16T10:44:34.428Z,9.70
2022-10-16T10:45:34.437Z,10.20
2022-10-16T10:46:34.439Z,10.20
2022-10-16T10:47:34.448Z,10.00
2022-10-16T10:48:34.459Z,10.30
2022-10-16T10:49:34.466Z,9.80
2022-10-16T10:50:34.470Z,10.20
2022-10-16T10:51:34.473Z,10.30
2022-10-16T10:52:34.481Z,10.30
2022-10-16T10:53:34.488Z,9.60
2022-10-16T10:54:34.490Z,9.30
2022-10-16T10:55:34.508Z,9.80
2022-10-16T10:56:34.535Z,9.20
2022-10-16T10:57:34.559Z,9.50
2022-10-16T10:58:36.039Z,9.30
2022-10-16T10:59:34.520Z,9.30
2022-10-16T11:00:34.531Z,8.90
2022-10-16T11:01:34.578Z,8.80
2022-10-16T11:02:34.539Z,8.40
2022-10-16T11:03:34.549Z,9.70
2022-10-16T11:04:34.561Z,10.40
2022-10-16T11:05:34.567Z,9.60
2022-10-16T11:06:34.633Z,10.30
2022-10-16T11:07:34.578Z,10.50
2022-10-16T11:08:34.608Z,10.10
2022-10-16T11:09:34.593Z,9.00
2022-10-16T11:10:34.603Z,9.40
2022-10-16T11:11:34.618Z,8.10
2022-10-16T11:12:34.643Z,8.50
2022-10-16T11:13:34.628Z,8.80
2022-10-16T11:14:34.629Z,8.80
2022-10-16T11:15:34.647Z,8.80
2022-10-16T11:16:34.646Z,9.30
2022-10-16T11:17:34.657Z,7.60
2022-10-16T11:18:34.666Z,8.50
2022-10-16T11:19:34.672Z,8.60
2022-10-16T11:20:34.679Z,9.00
2022-10-16T11:21:34.690Z,8.90
2022-10-16T11:22:34.699Z,8.30
2022-10-16T11:23:34.707Z,9.30
2022-10-16T11:24:34.714Z,10.00
2022-10-16T11:25:34.721Z,10.00
2022-10-16T11:26:34.738Z,9.80
2022-10-16T11:27:34.742Z,9.80
2022-10-16T11:28:34.913Z,10.00
2022-10-16T11:29:34.758Z,9.70
2022-10-16T11:30:34.771Z,10.20
2022-10-16T11:31:34.790Z,10.10
2022-10-16T11:32:34.797Z,10.10
2022-10-16T11:33:34.809Z,10.20
2022-10-16T11:34:37.694Z,10.00
2022-10-16T11:35:34.826Z,9.00
2022-10-16T11:36:34.833Z,9.40
2022-10-16T11:37:34.844Z,8.90
2022-10-16T11:38:34.851Z,8.90
2022-10-16T11:39:34.861Z,8.70
2022-10-16T11:40:34.870Z,10.10
2022-10-16T11:41:34.878Z,9.70
2022-10-16T11:42:34.892Z,9.90
2022-10-16T11:43:34.896Z,10.30
2022-10-16T11:44:34.927Z,10.10
2022-10-16T11:45:34.920Z,10.10
2022-10-16T11:46:47.789Z,9.90
2022-10-16T11:48:34.945Z,9.50
2022-10-16T11:49:34.953Z,8.60
2022-10-16T11:50:34.962Z,8.40
2022-10-16T11:51:34.973Z,9.20
2022-10-16T11:52:34.975Z,9.00
2022-10-16T11:53:34.986Z,9.90
2022-10-16T11:54:34.986Z,10.30
2022-10-16T11:55:35.008Z,10.50
2022-10-16T11:56:35.018Z,9.90
2022-10-16T11:57:35.023Z,9.70
2022-10-16T11:58:35.028Z,9.90
2022-10-16T11:59:35.036Z,9.40
2022-10-16T12:00:35.074Z,10.00
2022-10-16T12:01:35.060Z,10.80
2022-10-16T12:02:35.063Z,10.40
2022-10-16T12:03:35.100Z,10.30
2022-10-16T12:04:35.083Z,10.50
2022-10-16T12:05:35.086Z,10.60
2022-10-16T12:06:35.095Z,10.60
2022-10-16T12:07:35.105Z,10.60
2022-10-16T12:08:35.121Z,11.00
2022-10-16T12:09:35.119Z,10.60
2022-10-16T12:10:35.161Z,10.50
2022-10-16T12:11:35.137Z,10.40
2022-10-16T12:12:36.868Z,10.70
2022-10-16T12:13:35.159Z,10.20
2022-10-16T12:14:42.851Z,10.30
2022-10-16T12:15:57.688Z,10.40
2022-10-16T12:16:35.195Z,10.30
2022-10-16T12:17:35.177Z,9.80
2022-10-16T12:18:35.180Z,9.90
2022-10-16T12:19:35.196Z,10.20
2022-10-16T12:20:35.200Z,10.20
2022-10-16T12:21:35.214Z,10.10
2022-10-16T12:22:39.297Z,10.70
2022-10-16T12:23:35.221Z,10.60
2022-10-16T12:24:35.230Z,10.50
2022-10-16T12:25:35.233Z,10.50
2022-10-16T12:26:35.239Z,10.60
2022-10-16T12:27:35.249Z,11.60
2022-10-16T12:28:35.383Z,10.60
2022-10-16T12:29:35.264Z,10.30
2022-10-16T12:30:36.038Z,10.50
2022-10-16T12:31:35.275Z,10.50
2022-10-16T12:32:46.089Z,11.00
2022-10-16T12:33:35.283Z,10.50
2022-10-16T12:34:35.299Z,10.30
2022-10-16T12:35:35.300Z,10.30
2022-10-16T12:36:35.306Z,10.60
2022-10-16T12:37:35.318Z,10.70
2022-10-16T12:38:35.320Z,10.60
2022-10-16T12:39:35.326Z,10.50
2022-10-16T12:40:35.329Z,10.60
2022-10-16T12:41:35.341Z,10.80
2022-10-16T12:42:35.341Z,10.60
2022-10-16T12:43:35.346Z,10.80
2022-10-16T12:44:35.352Z,10.70
2022-10-16T12:45:35.358Z,10.80
2022-10-16T12:46:35.360Z,10.90
2022-10-16T12:47:35.372Z,10.90
2022-10-16T12:48:48.348Z,10.60
2022-10-16T12:49:35.376Z,10.80
2022-10-16T12:50:35.378Z,10.80
2022-10-16T12:51:35.387Z,10.60
2022-10-16T12:52:35.388Z,10.90
2022-10-16T12:53:35.397Z,10.50
2022-10-16T12:54:35.394Z,10.10
2022-10-16T12:55:35.406Z,10.40
2022-10-16T12:56:35.523Z,10.50
2022-10-16T12:57:38.146Z,10.50
2022-10-16T12:58:35.418Z,10.20
2022-10-16T12:59:35.419Z,10.70
2022-10-16T13:00:35.444Z,10.70
2022-10-16T13:01:35.430Z,10.50
2022-10-16T13:02:35.439Z,10.40
2022-10-16T13:03:35.454Z,10.00
2022-10-16T13:04:35.465Z,10.30
2022-10-16T13:06:35.459Z,10.10
2022-10-16T13:07:35.468Z,9.70
2022-10-16T13:08:35.457Z,10.00
2022-10-16T13:09:35.456Z,9.60
2022-10-16T13:10:35.465Z,10.00
2022-10-16T13:11:35.474Z,10.20
2022-10-16T13:12:35.479Z,10.30
2022-10-16T13:13:35.473Z,10.40
2022-10-16T13:14:35.530Z,9.80
2022-10-16T13:15:35.492Z,10.80
2022-10-16T13:16:35.487Z,10.60